createdAt,value
2016-07-23T00:00:59.158Z,19.65
2016-07-23T00:01:59.329Z,19.84
2016-07-23T00:02:59.178Z,19.72
2016-07-23T00:03:59.245Z,19.68
2016-07-23T00:04:59.165Z,19.72
2016-07-23T00:05:59.151Z,19.78
2016-07-23T00:06:59.161Z,19.69
2016-07-23T00:07:59.211Z,19.69
2016-07-23T00:08:59.174Z,19.8
2016-07-23T00:09:59.257Z,19.78
2016-07-23T00:10:59.238Z,19.78
2016-07-23T00:11:59.213Z,19.75
2016-07-23T00:12:59.229Z,19.91
2016-07-23T00:13:59.189Z,19.8
2016-07-23T00:14:59.181Z,19.8
2016-07-23T00:15:59.160Z,19.79
2016-07-23T00:16:59.165Z,19.9
2016-07-23T00:17:59.191Z,19.78
2016-07-23T00:18:59.195Z,19.84
2016-07-23T00:19:59.175Z,19.88
2016-07-23T00:20:59.196Z,19.86
2016-07-23T00:21:59.187Z,19.76
2016-07-23T00:22:59.195Z,19.8
2016-07-23T00:23:59.186Z,19.79
2016-07-23T00:24:59.213Z,19.79
2016-07-23T00:25:59.193Z,19.79
2016-07-23T00:26:59.224Z,19.68
2016-07-23T00:27:59.192Z,19.88
2016-07-23T00:28:59.193Z,19.6
2016-07-23T00:29:59.213Z,19.58
2016-07-23T00:30:59.224Z,19.6
2016-07-23T00:31:59.165Z,19.66
2016-07-23T00:32:59.191Z,19.55
2016-07-23T00:33:59.195Z,19.55
2016-07-23T00:34:59.193Z,19.63
2016-07-23T00:35:59.184Z,19.5
2016-07-23T00:36:59.223Z,19.58
2016-07-23T00:37:59.223Z,19.6
2016-07-23T00:38:59.206Z,19.55
2016-07-23T00:39:59.221Z,19.54
2016-07-23T00:40:59.193Z,19.6
2016-07-23T00:41:59.197Z,19.42
2016-07-23T00:42:59.233Z,19.51
2016-07-23T00:43:59.237Z,19.47
2016-07-23T00:44:59.222Z,19.39
2016-07-23T00:45:59.193Z,19.48
2016-07-23T00:46:59.211Z,19.46
2016-07-23T00:47:59.179Z,19.42
2016-07-23T00:48:59.207Z,19.33
2016-07-23T00:49:59.206Z,19.5
2016-07-23T00:50:59.206Z,19.42
2016-07-23T00:51:59.185Z,19.4
2016-07-23T00:52:59.193Z,19.46
2016-07-23T00:53:59.247Z,19.42
2016-07-23T00:54:59.205Z,19.39
2016-07-23T00:55:59.218Z,19.46
2016-07-23T00:56:59.225Z,19.33
2016-07-23T00:57:59.201Z,19.5
2016-07-23T00:58:59.219Z,19.48
2016-07-23T00:59:59.211Z,19.35
2016-07-23T01:00:59.263Z,19.38
2016-07-23T01:01:59.225Z,19.47
2016-07-23T01:02:59.216Z,19.43
2016-07-23T01:03:59.246Z,19.39
2016-07-23T01:04:59.225Z,19.33
2016-07-23T01:05:59.225Z,19.36
2016-07-23T01:06:59.232Z,19.42
2016-07-23T01:07:59.237Z,19.36
2016-07-23T01:08:59.230Z,19.38
2016-07-23T01:09:59.229Z,19.4
2016-07-23T01:10:59.208Z,19.38
2016-07-23T01:11:59.223Z,19.38
2016-07-23T01:12:59.226Z,19.35
2016-07-23T01:13:59.215Z,19.4
2016-07-23T01:14:59.208Z,19.42
2016-07-23T01:15:59.257Z,19.42
2016-07-23T01:16:59.253Z,19.4
2016-07-23T01:17:59.223Z,19.35
2016-07-23T01:18:59.239Z,19.43
2016-07-23T01:19:59.226Z,19.38
2016-07-23T01:20:59.252Z,19.31
2016-07-23T01:21:59.245Z,19.28
2016-07-23T01:22:59.256Z,19.28
2016-07-23T01:23:59.241Z,19.36
2016-07-23T01:24:59.228Z,19.33
2016-07-23T01:25:59.218Z,19.42
2016-07-23T01:26:59.215Z,19.43
2016-07-23T01:27:59.241Z,19.28
2016-07-23T01:28:59.241Z,19.33
2016-07-23T01:29:59.235Z,19.29
2016-07-23T01:30:59.254Z,19.33
2016-07-23T01:31:59.227Z,19.21
2016-07-23T01:32:59.255Z,19.29
2016-07-23T01:33:59.263Z,19.33
2016-07-23T01:34:59.242Z,19.28
2016-07-23T01:35:59.254Z,19.31
2016-07-23T01:36:59.257Z,19.32
2016-07-23T01:37:59.249Z,19.21
2016-07-23T01:38:59.280Z,19.25
2016-07-23T01:39:59.263Z,19.31
2016-07-23T01:40:59.285Z,19.32
2016-07-23T01:41:59.288Z,19.23
2016-07-23T01:42:59.256Z,19.35
2016-07-23T01:43:59.292Z,19.23
2016-07-23T01:44:59.290Z,19.35
2016-07-23T01:45:59.291Z,19.29
2016-07-23T01:47:59.307Z,19.29
2016-07-23T01:48:59.294Z,19.35
2016-07-23T01:50:07.527Z,19.31
2016-07-23T01:50:59.303Z,19.35
2016-07-23T01:51:59.295Z,19.4
2016-07-23T01:52:59.286Z,19.36
2016-07-23T01:53:59.287Z,19.38
2016-07-23T01:54:59.248Z,19.39
2016-07-23T01:55:59.238Z,19.35
2016-07-23T01:56:59.265Z,19.36
2016-07-23T01:57:59.283Z,19.4
2016-07-23T01:58:59.276Z,19.33
2016-07-23T01:59:59.256Z,19.31
2016-07-23T02:00:59.246Z,19.36
2016-07-23T02:01:59.278Z,19.29
2016-07-23T02:02:59.287Z,19.25
2016-07-23T02:03:59.292Z,19.25
2016-07-23T02:04:59.287Z,19.21
2016-07-23T02:05:59.290Z,19.28
2016-07-23T02:06:59.289Z,19.33
2016-07-23T02:07:59.291Z,19.2
2016-07-23T02:08:59.278Z,19.2
2016-07-23T02:09:59.287Z,19.2
2016-07-23T02:10:59.264Z,19.24
2016-07-23T02:11:59.277Z,19.17
2016-07-23T02:12:59.277Z,19.28
2016-07-23T02:13:59.349Z,19.17
2016-07-23T02:14:59.282Z,19.2
2016-07-23T02:15:59.318Z,19.15
2016-07-23T02:16:59.271Z,19.21
2016-07-23T02:17:59.287Z,19.21
2016-07-23T02:18:59.289Z,19.13
2016-07-23T02:19:59.324Z,19.17
2016-07-23T02:20:59.288Z,19.18
2016-07-23T02:21:59.265Z,19.13
2016-07-23T02:22:59.293Z,19.13
2016-07-23T02:23:59.288Z,19.17
2016-07-23T02:24:59.287Z,19.11
2016-07-23T02:25:59.318Z,19.14
2016-07-23T02:26:59.308Z,19.06
2016-07-23T02:27:59.387Z,19.11
2016-07-23T02:28:59.302Z,19.06
2016-07-23T02:29:59.308Z,19.1
2016-07-23T02:30:59.301Z,19.08
2016-07-23T02:31:59.316Z,19.11
2016-07-23T02:32:59.305Z,19.1
2016-07-23T02:33:59.314Z,19.11
2016-07-23T02:34:59.319Z,19.15
2016-07-23T02:35:59.294Z,19.1
2016-07-23T02:36:59.320Z,19.14
2016-07-23T02:37:59.319Z,19.14
2016-07-23T02:38:59.315Z,19.11
2016-07-23T02:39:59.319Z,19.13
2016-07-23T02:40:59.319Z,19.06
2016-07-23T02:41:59.319Z,19.17
2016-07-23T02:42:59.324Z,19.11
2016-07-23T02:43:59.351Z,19.1
2016-07-23T02:44:59.316Z,19.08
2016-07-23T02:45:59.321Z,19.06
2016-07-23T02:46:59.321Z,19.05
2016-07-23T02:47:59.347Z,19.13
2016-07-23T02:48:59.315Z,19.11
2016-07-23T02:49:59.307Z,19.14
2016-07-23T02:50:59.322Z,19.17
2016-07-23T02:51:59.323Z,19.1
2016-07-23T02:52:59.305Z,19.1
2016-07-23T02:53:59.378Z,19.11
2016-07-23T02:54:59.350Z,19.08
2016-07-23T02:55:59.318Z,19.11
2016-07-23T02:56:59.318Z,19.11
2016-07-23T02:57:59.368Z,19.1
2016-07-23T02:58:59.348Z,19.15
2016-07-23T02:59:59.340Z,19.18
2016-07-23T03:00:59.330Z,19.13
2016-07-23T03:01:59.324Z,19.21
2016-07-23T03:02:59.326Z,19.21
2016-07-23T03:03:59.336Z,19.14
2016-07-23T03:04:59.345Z,19.06
2016-07-23T03:05:59.294Z,19.2
2016-07-23T03:06:59.337Z,19.08
2016-07-23T03:07:59.333Z,19.14
2016-07-23T03:08:59.334Z,19.06
2016-07-23T03:09:59.318Z,19.1
2016-07-23T03:10:59.351Z,19.02
2016-07-23T03:11:59.322Z,19.06
2016-07-23T03:12:59.338Z,19.08
2016-07-23T03:13:59.350Z,19.1
2016-07-23T03:14:59.340Z,18.98
2016-07-23T03:15:59.345Z,19.13
2016-07-23T03:16:59.336Z,19.05
2016-07-23T03:17:59.341Z,18.99
2016-07-23T03:18:59.381Z,19.14
2016-07-23T03:19:59.350Z,18.99
2016-07-23T03:20:59.383Z,19.08
2016-07-23T03:21:59.357Z,19.08
2016-07-23T03:22:59.341Z,19.05
2016-07-23T03:23:59.352Z,18.97
2016-07-23T03:24:59.352Z,19.15
2016-07-23T03:25:59.383Z,18.98
2016-07-23T03:26:59.351Z,19.05
2016-07-23T03:27:59.356Z,18.98
2016-07-23T03:28:59.356Z,19.06
2016-07-23T03:29:59.374Z,19.01
2016-07-23T03:30:59.368Z,19.02
2016-07-23T03:31:59.382Z,18.99
2016-07-23T03:32:59.383Z,19.13
2016-07-23T03:33:59.378Z,19.01
2016-07-23T03:34:59.382Z,19.06
2016-07-23T03:35:59.361Z,19.05
2016-07-23T03:36:59.340Z,19.06
2016-07-23T03:37:59.346Z,19.17
2016-07-23T03:38:59.371Z,19.06
2016-07-23T03:39:59.388Z,19.01
2016-07-23T03:40:59.373Z,18.95
2016-07-23T03:41:59.354Z,19.05
2016-07-23T03:42:59.359Z,18.98
2016-07-23T03:43:59.374Z,19.05
2016-07-23T03:44:59.382Z,18.91
2016-07-23T03:45:59.383Z,18.92
2016-07-23T03:46:59.378Z,18.92
2016-07-23T03:47:59.370Z,18.94
2016-07-23T03:48:59.381Z,18.91
2016-07-23T03:49:59.370Z,18.94
2016-07-23T03:50:59.379Z,18.91
2016-07-23T03:51:59.367Z,18.94
2016-07-23T03:53:00.385Z,18.83
2016-07-23T03:53:59.395Z,18.82
2016-07-23T03:54:59.373Z,18.74
2016-07-23T03:55:59.381Z,18.86
2016-07-23T03:56:59.385Z,18.87
2016-07-23T03:57:59.390Z,18.84
2016-07-23T03:58:59.384Z,18.76
2016-07-23T03:59:59.383Z,18.76
2016-07-23T04:00:59.391Z,18.86
2016-07-23T04:01:59.375Z,18.77
2016-07-23T04:02:59.382Z,18.8
2016-07-23T04:03:59.404Z,18.73
2016-07-23T04:04:59.383Z,18.74
2016-07-23T04:05:59.413Z,18.86
2016-07-23T04:06:59.383Z,18.82
2016-07-23T04:07:59.394Z,18.8
2016-07-23T04:08:59.380Z,18.83
2016-07-23T04:09:59.379Z,18.8
2016-07-23T04:10:59.398Z,18.83
2016-07-23T04:11:59.377Z,18.76
2016-07-23T04:12:59.437Z,18.86
2016-07-23T04:14:00.165Z,18.84
2016-07-23T04:14:59.369Z,18.82
2016-07-23T04:15:59.417Z,18.8
2016-07-23T04:16:59.380Z,18.87
2016-07-23T04:17:59.383Z,18.95
2016-07-23T04:18:59.384Z,18.95
2016-07-23T04:19:59.419Z,18.94
2016-07-23T04:20:59.411Z,18.83
2016-07-23T04:21:59.399Z,18.91
2016-07-23T04:22:59.392Z,18.98
2016-07-23T04:23:59.393Z,19.01
2016-07-23T04:24:59.413Z,19.01
2016-07-23T04:25:59.404Z,18.99
2016-07-23T04:26:59.385Z,19.08
2016-07-23T04:27:59.386Z,19.11
2016-07-23T04:28:59.407Z,19.01
2016-07-23T04:29:59.389Z,19.11
2016-07-23T04:30:59.399Z,19.1
2016-07-23T04:31:59.395Z,19.11
2016-07-23T04:32:59.415Z,19.18
2016-07-23T04:33:59.389Z,19.17
2016-07-23T04:34:59.411Z,19.17
2016-07-23T04:35:59.447Z,19.11
2016-07-23T04:36:59.425Z,19.14
2016-07-23T04:37:59.405Z,19.21
2016-07-23T04:38:59.439Z,19.31
2016-07-23T04:39:59.445Z,19.23
2016-07-23T04:40:59.446Z,19.25
2016-07-23T04:41:59.418Z,19.31
2016-07-23T04:42:59.425Z,19.31
2016-07-23T04:43:59.401Z,19.31
2016-07-23T04:44:59.412Z,19.36
2016-07-23T04:45:59.446Z,19.4
2016-07-23T04:46:59.417Z,19.43
2016-07-23T04:47:59.443Z,19.48
2016-07-23T04:48:59.480Z,19.6
2016-07-23T04:49:59.417Z,19.57
2016-07-23T04:50:59.416Z,19.53
2016-07-23T04:51:59.498Z,19.57
2016-07-23T04:52:59.426Z,19.53
2016-07-23T04:53:59.432Z,19.54
2016-07-23T04:54:59.447Z,19.61
2016-07-23T04:55:59.451Z,19.65
2016-07-23T04:56:59.416Z,19.73
2016-07-23T04:57:59.432Z,19.8
2016-07-23T04:58:59.448Z,19.69
2016-07-23T04:59:59.447Z,19.8
2016-07-23T05:00:59.446Z,19.86
2016-07-23T05:01:59.430Z,19.9
2016-07-23T05:02:59.446Z,19.9
2016-07-23T05:03:59.434Z,20
2016-07-23T05:04:59.445Z,20.02
2016-07-23T05:05:59.470Z,20
2016-07-23T05:06:59.443Z,19.98
2016-07-23T05:07:59.471Z,20.08
2016-07-23T05:08:59.426Z,20.21
2016-07-23T05:09:59.479Z,20.15
2016-07-23T05:10:59.456Z,20.23
2016-07-23T05:11:59.658Z,20.34
2016-07-23T05:12:59.449Z,20.33
2016-07-23T05:13:59.479Z,20.43
2016-07-23T05:14:59.443Z,20.5
2016-07-23T05:15:59.447Z,20.54
2016-07-23T05:16:59.506Z,20.56
2016-07-23T05:17:59.435Z,20.64
2016-07-23T05:18:59.472Z,20.61
2016-07-23T05:19:59.431Z,20.66
2016-07-23T05:20:59.446Z,20.68
2016-07-23T05:21:59.449Z,20.71
2016-07-23T05:22:59.461Z,20.77
2016-07-23T05:23:59.464Z,20.8
2016-07-23T05:25:00.053Z,20.79
2016-07-23T05:25:59.523Z,20.9
2016-07-23T05:26:59.517Z,20.91
2016-07-23T05:27:59.491Z,20.98
2016-07-23T05:28:59.482Z,20.91
2016-07-23T05:29:59.463Z,21.01
2016-07-23T05:30:59.470Z,20.96
2016-07-23T05:31:59.626Z,21.04
2016-07-23T05:32:59.473Z,21.16
2016-07-23T05:33:59.477Z,21.2
2016-07-23T05:34:59.483Z,21.19
2016-07-23T05:35:59.461Z,21.21
2016-07-23T05:36:59.481Z,21.19
2016-07-23T05:37:59.469Z,21.2
2016-07-23T05:38:59.479Z,21.36
2016-07-23T05:39:59.457Z,21.34
2016-07-23T05:40:59.505Z,21.36
2016-07-23T05:41:59.477Z,21.41
2016-07-23T05:42:59.484Z,21.32
2016-07-23T05:43:59.484Z,21.41
2016-07-23T05:44:59.544Z,21.44
2016-07-23T05:45:59.523Z,21.51
2016-07-23T05:46:59.540Z,21.5
2016-07-23T05:47:59.576Z,21.5
2016-07-23T05:48:59.600Z,21.5
2016-07-23T05:49:59.576Z,21.69
2016-07-23T05:50:59.608Z,21.59
2016-07-23T05:51:59.602Z,21.72
2016-07-23T05:52:59.984Z,21.78
2016-07-23T05:54:00.051Z,21.79
2016-07-23T05:54:59.957Z,21.74
2016-07-23T05:55:59.540Z,21.83
2016-07-23T05:56:59.508Z,21.87
2016-07-23T05:57:59.508Z,21.95
2016-07-23T05:58:59.507Z,21.79
2016-07-23T05:59:59.497Z,21.94
2016-07-23T06:00:59.541Z,22.01
2016-07-23T06:01:59.490Z,22.06
2016-07-23T06:02:59.533Z,22.06
2016-07-23T06:03:59.539Z,22.16
2016-07-23T06:04:59.501Z,22.13
2016-07-23T06:05:59.521Z,22.2
2016-07-23T06:06:59.505Z,22.27
2016-07-23T06:07:59.495Z,22.28
2016-07-23T06:08:59.542Z,22.35
2016-07-23T06:09:59.542Z,22.35
2016-07-23T06:10:59.542Z,22.46
2016-07-23T06:11:59.492Z,22.44
2016-07-23T06:12:59.519Z,22.46
2016-07-23T06:13:59.541Z,22.57
2016-07-23T06:14:59.512Z,22.54
2016-07-23T06:15:59.540Z,22.64
